sensor_id;sensor_type;location;lat;lon;timestamp;P1;durP1;ratioP1;P2;durP2;ratioP2
7905;SDS011;13291;40.472;-3.878;2022-10-04T00:00:56;6.00;;;1.47;;
7905;SDS011;13291;40.472;-3.878;2022-10-04T00:03:28;4.63;;;1.57;;
7905;SDS011;13291;40.472;-3.878;2022-10-04T00:05:58;3.57;;;1.13;;
7905;SDS011;13291;40.472;-3.878;2022-10-04T00:08:29;5.33;;;1.60;;
7905;SDS011;13291;40.472;-3.878;2022-10-04T00:11:05;8.97;;;1.70;;
7905;SDS011;13291;40.472;-3.878;2022-10-04T00:13:38;4.17;;;1.90;;
7905;SDS011;13291;40.472;-3.878;2022-10-04T00:16:18;4.87;;;1.60;;
7905;SDS011;13291;40.472;-3.878;2022-10-04T00:19:01;5.07;;;1.20;;
7905;SDS011;13291;40.472;-3.878;2022-10-04T00:24:59;6.10;;;1.20;;
7905;SDS011;13291;40.472;-3.878;2022-10-04T00:31:06;6.53;;;1.70;;
7905;SDS011;13291;40.472;-3.878;2022-10-04T00:33:49;2.63;;;1.30;;
7905;SDS011;13291;40.472;-3.878;2022-10-04T00:45:10;8.67;;;1.77;;
7905;SDS011;13291;40.472;-3.878;2022-10-04T00:48:00;9.07;;;2.00;;
7905;SDS011;13291;40.472;-3.878;2022-10-04T00:50:47;3.87;;;1.73;;
7905;SDS011;13291;40.472;-3.878;2022-10-04T00:53:20;5.57;;;1.60;;
7905;SDS011;13291;40.472;-3.878;2022-10-04T00:55:55;4.80;;;1.63;;
7905;SDS011;13291;40.472;-3.878;2022-10-04T00:58:27;4.40;;;1.67;;
7905;SDS011;13291;40.472;-3.878;2022-10-04T01:01:01;5.33;;;1.40;;
7905;SDS011;13291;40.472;-3.878;2022-10-04T01:03:31;3.80;;;1.27;;
7905;SDS011;13291;40.472;-3.878;2022-10-04T01:06:02;6.77;;;1.83;;
7905;SDS011;13291;40.472;-3.878;2022-10-04T01:08:32;7.73;;;1.40;;
7905;SDS011;13291;40.472;-3.878;2022-10-04T01:11:05;5.23;;;1.80;;
7905;SDS011;13291;40.472;-3.878;2022-10-04T01:13:36;5.60;;;2.47;;
7905;SDS011;13291;40.472;-3.878;2022-10-04T01:16:08;5.07;;;1.40;;
7905;SDS011;13291;40.472;-3.878;2022-10-04T01:18:40;5.47;;;2.13;;
7905;SDS011;13291;40.472;-3.878;2022-10-04T01:21:08;5.23;;;1.50;;
7905;SDS011;13291;40.472;-3.878;2022-10-04T01:23:53;6.57;;;1.90;;
7905;SDS011;13291;40.472;-3.878;2022-10-04T01:26:42;10.73;;;1.90;;
7905;SDS011;13291;40.472;-3.878;2022-10-04T01:29:12;5.00;;;1.30;;
7905;SDS011;13291;40.472;-3.878;2022-10-04T01:31:42;7.30;;;1.80;;
7905;SDS011;13291;40.472;-3.878;2022-10-04T01:34:11;4.00;;;1.10;;
7905;SDS011;13291;40.472;-3.878;2022-10-04T01:36:39;6.27;;;1.50;;
7905;SDS011;13291;40.472;-3.878;2022-10-04T01:39:08;8.33;;;1.50;;
7905;SDS011;13291;40.472;-3.878;2022-10-04T01:41:40;6.30;;;1.47;;
7905;SDS011;13291;40.472;-3.878;2022-10-04T01:44:14;2.17;;;1.07;;
7905;SDS011;13291;40.472;-3.878;2022-10-04T01:46:46;5.67;;;1.40;;
7905;SDS011;13291;40.472;-3.878;2022-10-04T01:49:16;5.50;;;1.60;;
7905;SDS011;13291;40.472;-3.878;2022-10-04T01:51:50;7.40;;;1.30;;
7905;SDS011;13291;40.472;-3.878;2022-10-04T01:54:24;3.80;;;1.43;;
7905;SDS011;13291;40.472;-3.878;2022-10-04T01:56:59;7.93;;;1.87;;
7905;SDS011;13291;40.472;-3.878;2022-10-04T01:59:34;2.90;;;1.30;;
7905;SDS011;13291;40.472;-3.878;2022-10-04T02:02:08;5.30;;;1.13;;
7905;SDS011;13291;40.472;-3.878;2022-10-04T02:04:41;7.00;;;1.33;;
7905;SDS011;13291;40.472;-3.878;2022-10-04T02:07:16;8.10;;;1.40;;
7905;SDS011;13291;40.472;-3.878;2022-10-04T02:09:47;7.33;;;1.80;;
7905;SDS011;13291;40.472;-3.878;2022-10-04T02:12:20;4.10;;;1.20;;
7905;SDS011;13291;40.472;-3.878;2022-10-04T02:14:48;4.50;;;1.37;;
7905;SDS011;13291;40.472;-3.878;2022-10-04T02:17:18;3.60;;;1.27;;
7905;SDS011;13291;40.472;-3.878;2022-10-04T02:19:48;6.90;;;1.40;;
7905;SDS011;13291;40.472;-3.878;2022-10-04T02:22:16;7.10;;;1.43;;
7905;SDS011;13291;40.472;-3.878;2022-10-04T02:24:45;5.33;;;1.57;;
7905;SDS011;13291;40.472;-3.878;2022-10-04T02:27:14;4.37;;;1.10;;
7905;SDS011;13291;40.472;-3.878;2022-10-04T02:29:41;6.10;;;1.50;;
7905;SDS011;13291;40.472;-3.878;2022-10-04T02:32:08;8.97;;;1.20;;
7905;SDS011;13291;40.472;-3.878;2022-10-04T02:34:54;4.80;;;1.30;;
7905;SDS011;13291;40.472;-3.878;2022-10-04T02:37:22;8.43;;;1.40;;
7905;SDS011;13291;40.472;-3.878;2022-10-04T02:39:54;9.23;;;1.70;;
7905;SDS011;13291;40.472;-3.878;2022-10-04T02:42:26;3.73;;;1.30;;
7905;SDS011;13291;40.472;-3.878;2022-10-04T02:45:04;6.20;;;1.67;;
7905;SDS011;13291;40.472;-3.878;2022-10-04T02:47:42;4.30;;;1.70;;
7905;SDS011;13291;40.472;-3.878;2022-10-04T02:50:17;3.83;;;1.17;;
7905;SDS011;13291;40.472;-3.878;2022-10-04T02:52:51;6.80;;;1.20;;
7905;SDS011;13291;40.472;-3.878;2022-10-04T02:55:25;4.20;;;1.37;;
7905;SDS011;13291;40.472;-3.878;2022-10-04T02:57:55;6.43;;;1.13;;
7905;SDS011;13291;40.472;-3.878;2022-10-04T03:00:23;5.07;;;1.43;;
7905;SDS011;13291;40.472;-3.878;2022-10-04T03:05:41;10.43;;;1.97;;
7905;SDS011;13291;40.472;-3.878;2022-10-04T03:08:10;9.70;;;2.00;;
7905;SDS011;13291;40.472;-3.878;2022-10-04T03:10:39;4.47;;;1.17;;
7905;SDS011;13291;40.472;-3.878;2022-10-04T03:13:08;7.70;;;2.27;;
7905;SDS011;13291;40.472;-3.878;2022-10-04T03:15:36;11.20;;;1.90;;
7905;SDS011;13291;40.472;-3.878;2022-10-04T03:18:04;3.50;;;1.30;;
7905;SDS011;13291;40.472;-3.878;2022-10-04T03:20:31;5.77;;;1.63;;
7905;SDS011;13291;40.472;-3.878;2022-10-04T03:23:02;2.97;;;1.07;;
7905;SDS011;13291;40.472;-3.878;2022-10-04T03:25:33;6.53;;;1.73;;
7905;SDS011;13291;40.472;-3.878;2022-10-04T03:28:08;5.67;;;1.50;;
7905;SDS011;13291;40.472;-3.878;2022-10-04T03:30:35;6.17;;;1.40;;
7905;SDS011;13291;40.472;-3.878;2022-10-04T03:33:02;3.07;;;1.23;;
7905;SDS011;13291;40.472;-3.878;2022-10-04T03:35:31;3.63;;;1.37;;
7905;SDS011;13291;40.472;-3.878;2022-10-04T03:38:00;11.33;;;1.40;;
7905;SDS011;13291;40.472;-3.878;2022-10-04T03:40:33;8.93;;;2.10;;
7905;SDS011;13291;40.472;-3.878;2022-10-04T03:43:03;5.47;;;2.17;;
7905;SDS011;13291;40.472;-3.878;2022-10-04T03:45:33;7.40;;;2.80;;
7905;SDS011;13291;40.472;-3.878;2022-10-04T03:48:02;11.13;;;2.40;;
7905;SDS011;13291;40.472;-3.878;2022-10-04T03:50:32;13.50;;;5.23;;
7905;SDS011;13291;40.472;-3.878;2022-10-04T03:53:05;15.50;;;6.90;;
7905;SDS011;13291;40.472;-3.878;2022-10-04T03:55:35;25.27;;;10.90;;
7905;SDS011;13291;40.472;-3.878;2022-10-04T03:58:07;25.87;;;12.00;;
7905;SDS011;13291;40.472;-3.878;2022-10-04T04:00:38;25.93;;;12.47;;
7905;SDS011;13291;40.472;-3.878;2022-10-04T04:03:11;22.30;;;9.90;;
7905;SDS011;13291;40.472;-3.878;2022-10-04T04:05:44;18.50;;;7.10;;
7905;SDS011;13291;40.472;-3.878;2022-10-04T04:08:16;15.53;;;4.90;;
7905;SDS011;13291;40.472;-3.878;2022-10-04T04:10:52;11.80;;;4.83;;
7905;SDS011;13291;40.472;-3.878;2022-10-04T04:13:22;17.40;;;3.60;;
7905;SDS011;13291;40.472;-3.878;2022-10-04T04:15:54;7.53;;;3.43;;
7905;SDS011;13291;40.472;-3.878;2022-10-04T04:18:22;9.17;;;3.10;;
7905;SDS011;13291;40.472;-3.878;2022-10-04T04:20:52;8.73;;;2.53;;
7905;SDS011;13291;40.472;-3.878;2022-10-04T04:23:24;10.40;;;1.33;;
7905;SDS011;13291;40.472;-3.878;2022-10-04T04:25:55;6.00;;;2.00;;
7905;SDS011;13291;40.472;-3.878;2022-10-04T04:28:37;9.60;;;1.63;;
7905;SDS011;13291;40.472;-3.878;2022-10-04T04:31:13;5.20;;;1.33;;
7905;SDS011;13291;40.472;-3.878;2022-10-04T04:33:45;6.50;;;1.47;;
7905;SDS011;13291;40.472;-3.878;2022-10-04T04:36:20;5.10;;;1.40;;
7905;SDS011;13291;40.472;-3.878;2022-10-04T04:38:47;4.93;;;1.73;;
7905;SDS011;13291;40.472;-3.878;2022-10-04T04:41:31;9.07;;;1.80;;
7905;SDS011;13291;40.472;-3.878;2022-10-04T04:44:00;6.87;;;1.87;;
7905;SDS011;13291;40.472;-3.878;2022-10-04T04:46:28;8.77;;;2.00;;
7905;SDS011;13291;40.472;-3.878;2022-10-04T04:48:57;7.37;;;2.00;;
7905;SDS011;13291;40.472;-3.878;2022-10-04T04:51:28;8.37;;;1.73;;
7905;SDS011;13291;40.472;-3.878;2022-10-04T04:53:57;5.27;;;2.13;;
7905;SDS011;13291;40.472;-3.878;2022-10-04T04:56:27;11.23;;;2.70;;
7905;SDS011;13291;40.472;-3.878;2022-10-04T04:58:56;12.93;;;3.20;;
7905;SDS011;13291;40.472;-3.878;2022-10-04T05:01:30;10.20;;;2.17;;
7905;SDS011;13291;40.472;-3.878;2022-10-04T05:04:00;9.30;;;1.80;;
7905;SDS011;13291;40.472;-3.878;2022-10-04T05:06:30;7.90;;;2.10;;
7905;SDS011;13291;40.472;-3.878;2022-10-04T05:08:59;6.30;;;1.50;;
7905;SDS011;13291;40.472;-3.878;2022-10-04T05:11:26;10.83;;;1.77;;
7905;SDS011;13291;40.472;-3.878;2022-10-04T05:13:57;11.83;;;3.47;;
7905;SDS011;13291;40.472;-3.878;2022-10-04T05:16:35;6.03;;;2.10;;
7905;SDS011;13291;40.472;-3.878;2022-10-04T05:19:06;10.13;;;2.27;;
7905;SDS011;13291;40.472;-3.878;2022-10-04T05:21:40;5.60;;;1.93;;
7905;SDS011;13291;40.472;-3.878;2022-10-04T05:24:11;7.53;;;1.90;;
7905;SDS011;13291;40.472;-3.878;2022-10-04T05:26:39;7.63;;;2.17;;
7905;SDS011;13291;40.472;-3.878;2022-10-04T05:29:09;7.17;;;1.40;;
7905;SDS011;13291;40.472;-3.878;2022-10-04T05:31:44;6.37;;;1.40;;
7905;SDS011;13291;40.472;-3.878;2022-10-04T05:34:16;8.03;;;1.53;;
7905;SDS011;13291;40.472;-3.878;2022-10-04T05:36:50;8.63;;;2.20;;
7905;SDS011;13291;40.472;-3.878;2022-10-04T05:39:26;4.93;;;1.70;;
7905;SDS011;13291;40.472;-3.878;2022-10-04T05:42:00;8.83;;;1.60;;
7905;SDS011;13291;40.472;-3.878;2022-10-04T05:44:34;8.03;;;1.30;;
7905;SDS011;13291;40.472;-3.878;2022-10-04T05:47:05;4.07;;;1.43;;
7905;SDS011;13291;40.472;-3.878;2022-10-04T05:49:35;5.73;;;1.60;;
7905;SDS011;13291;40.472;-3.878;2022-10-04T05:52:12;8.20;;;1.90;;
7905;SDS011;13291;40.472;-3.878;2022-10-04T05:54:40;7.47;;;1.93;;
7905;SDS011;13291;40.472;-3.878;2022-10-04T05:57:19;8.13;;;2.13;;
7905;SDS011;13291;40.472;-3.878;2022-10-04T06:00:00;9.30;;;1.60;;
7905;SDS011;13291;40.472;-3.878;2022-10-04T06:02:44;6.17;;;1.90;;
7905;SDS011;13291;40.472;-3.878;2022-10-04T06:05:22;5.70;;;2.03;;
7905;SDS011;13291;40.472;-3.878;2022-10-04T06:07:56;7.53;;;2.47;;
7905;SDS011;13291;40.472;-3.878;2022-10-04T06:10:38;14.63;;;2.50;;
7905;SDS011;13291;40.472;-3.878;2022-10-04T06:13:16;11.63;;;2.07;;
7905;SDS011;13291;40.472;-3.878;2022-10-04T06:16:00;10.60;;;2.83;;
7905;SDS011;13291;40.472;-3.878;2022-10-04T06:18:48;8.90;;;2.60;;
7905;SDS011;13291;40.472;-3.878;2022-10-04T06:21:30;11.93;;;2.63;;
7905;SDS011;13291;40.472;-3.878;2022-10-04T06:24:07;8.90;;;2.57;;
7905;SDS011;13291;40.472;-3.878;2022-10-04T06:26:40;9.37;;;2.90;;
7905;SDS011;13291;40.472;-3.878;2022-10-04T06:29:10;10.33;;;2.23;;
7905;SDS011;13291;40.472;-3.878;2022-10-04T06:31:59;15.20;;;2.50;;
7905;SDS011;13291;40.472;-3.878;2022-10-04T06:34:50;5.93;;;2.50;;
7905;SDS011;13291;40.472;-3.878;2022-10-04T06:37:49;5.87;;;2.50;;
7905;SDS011;13291;40.472;-3.878;2022-10-04T06:40:46;7.93;;;2.33;;
7905;SDS011;13291;40.472;-3.878;2022-10-04T06:43:38;4.90;;;2.80;;
7905;SDS011;13291;40.472;-3.878;2022-10-04T06:46:20;9.97;;;2.73;;
7905;SDS011;13291;40.472;-3.878;2022-10-04T06:49:14;10.53;;;2.83;;
7905;SDS011;13291;40.472;-3.878;2022-10-04T06:51:59;9.93;;;3.13;;
7905;SDS011;13291;40.472;-3.878;2022-10-04T06:54:48;11.27;;;2.80;;
7905;SDS011;13291;40.472;-3.878;2022-10-04T06:57:35;7.20;;;2.70;;
7905;SDS011;13291;40.472;-3.878;2022-10-04T07:00:16;12.40;;;3.33;;
7905;SDS011;13291;40.472;-3.878;2022-10-04T07:02:48;10.40;;;3.00;;
7905;SDS011;13291;40.472;-3.878;2022-10-04T07:05:21;12.83;;;3.27;;
7905;SDS011;13291;40.472;-3.878;2022-10-04T07:08:01;9.90;;;3.10;;
7905;SDS011;13291;40.472;-3.878;2022-10-04T07:10:37;16.13;;;4.10;;
7905;SDS011;13291;40.472;-3.878;2022-10-04T07:13:17;15.50;;;3.53;;
7905;SDS011;13291;40.472;-3.878;2022-10-04T07:15:59;11.57;;;3.43;;
7905;SDS011;13291;40.472;-3.878;2022-10-04T07:18:31;9.60;;;3.03;;
7905;SDS011;13291;40.472;-3.878;2022-10-04T07:21:02;5.80;;;2.40;;
7905;SDS011;13291;40.472;-3.878;2022-10-04T07:23:34;10.40;;;2.57;;
7905;SDS011;13291;40.472;-3.878;2022-10-04T07:26:05;11.00;;;2.83;;
7905;SDS011;13291;40.472;-3.878;2022-10-04T07:28:41;10.17;;;3.07;;
7905;SDS011;13291;40.472;-3.878;2022-10-04T07:31:27;9.47;;;2.87;;
7905;SDS011;13291;40.472;-3.878;2022-10-04T07:33:56;7.73;;;2.30;;
7905;SDS011;13291;40.472;-3.878;2022-10-04T07:36:28;11.60;;;2.60;;
7905;SDS011;13291;40.472;-3.878;2022-10-04T07:39:09;9.17;;;2.67;;
7905;SDS011;13291;40.472;-3.878;2022-10-04T07:41:42;6.60;;;2.40;;
7905;SDS011;13291;40.472;-3.878;2022-10-04T07:44:16;10.27;;;2.93;;
7905;SDS011;13291;40.472;-3.878;2022-10-04T07:46:53;11.33;;;2.77;;
7905;SDS011;13291;40.472;-3.878;2022-10-04T07:49:23;11.73;;;3.67;;
7905;SDS011;13291;40.472;-3.878;2022-10-04T07:51:58;9.77;;;2.30;;
7905;SDS011;13291;40.472;-3.878;2022-10-04T07:54:34;9.77;;;2.37;;
7905;SDS011;13291;40.472;-3.878;2022-10-04T07:57:07;10.23;;;2.53;;
7905;SDS011;13291;40.472;-3.878;2022-10-04T07:59:41;12.47;;;3.03;;
7905;SDS011;13291;40.472;-3.878;2022-10-04T08:02:16;11.20;;;2.33;;
7905;SDS011;13291;40.472;-3.878;2022-10-04T08:04:53;8.63;;;2.23;;
7905;SDS011;13291;40.472;-3.878;2022-10-04T08:07:30;13.70;;;2.50;;
7905;SDS011;13291;40.472;-3.878;2022-10-04T08:10:09;10.63;;;2.73;;
7905;SDS011;13291;40.472;-3.878;2022-10-04T08:12:47;7.27;;;2.33;;
7905;SDS011;13291;40.472;-3.878;2022-10-04T08:15:27;8.13;;;2.10;;
7905;SDS011;13291;40.472;-3.878;2022-10-04T08:18:00;8.87;;;2.47;;
7905;SDS011;13291;40.472;-3.878;2022-10-04T08:20:35;7.97;;;2.50;;
7905;SDS011;13291;40.472;-3.878;2022-10-04T08:23:08;6.17;;;2.70;;
7905;SDS011;13291;40.472;-3.878;2022-10-04T08:25:53;8.97;;;2.13;;
7905;SDS011;13291;40.472;-3.878;2022-10-04T08:28:33;16.60;;;3.20;;
7905;SDS011;13291;40.472;-3.878;2022-10-04T08:31:25;11.33;;;2.70;;
7905;SDS011;13291;40.472;-3.878;2022-10-04T08:34:18;12.20;;;3.00;;
7905;SDS011;13291;40.472;-3.878;2022-10-04T08:36:58;9.97;;;2.87;;
7905;SDS011;13291;40.472;-3.878;2022-10-04T08:39:41;7.67;;;3.00;;
7905;SDS011;13291;40.472;-3.878;2022-10-04T08:42:28;11.43;;;2.97;;
7905;SDS011;13291;40.472;-3.878;2022-10-04T08:51:35;9.23;;;2.90;;
7905;SDS011;13291;40.472;-3.878;2022-10-04T08:54:43;7.30;;;3.00;;
7905;SDS011;13291;40.472;-3.878;2022-10-04T08:57:41;7.07;;;2.67;;
7905;SDS011;13291;40.472;-3.878;2022-10-04T09:00:22;7.43;;;2.60;;
7905;SDS011;13291;40.472;-3.878;2022-10-04T09:06:07;7.20;;;2.60;;
7905;SDS011;13291;40.472;-3.878;2022-10-04T09:09:01;8.17;;;2.27;;
7905;SDS011;13291;40.472;-3.878;2022-10-04T09:12:00;8.50;;;2.53;;
7905;SDS011;13291;40.472;-3.878;2022-10-04T09:15:01;11.07;;;2.00;;
7905;SDS011;13291;40.472;-3.878;2022-10-04T09:17:42;9.03;;;2.57;;
7905;SDS011;13291;40.472;-3.878;2022-10-04T09:20:19;8.70;;;2.47;;
7905;SDS011;13291;40.472;-3.878;2022-10-04T09:22:53;9.77;;;1.67;;
7905;SDS011;13291;40.472;-3.878;2022-10-04T09:25:29;6.87;;;1.50;;
7905;SDS011;13291;40.472;-3.878;2022-10-04T09:28:19;7.30;;;1.80;;
7905;SDS011;13291;40.472;-3.878;2022-10-04T09:31:10;5.67;;;2.00;;
7905;SDS011;13291;40.472;-3.878;2022-10-04T09:33:51;7.23;;;1.90;;
7905;SDS011;13291;40.472;-3.878;2022-10-04T09:39:30;6.00;;;1.90;;
7905;SDS011;13291;40.472;-3.878;2022-10-04T09:42:22;5.53;;;1.67;;
7905;SDS011;13291;40.472;-3.878;2022-10-04T09:45:17;6.60;;;1.50;;
7905;SDS011;13291;40.472;-3.878;2022-10-04T09:53:54;3.53;;;1.47;;
7905;SDS011;13291;40.472;-3.878;2022-10-04T09:56:44;5.17;;;1.50;;
7905;SDS011;13291;40.472;-3.878;2022-10-04T10:02:42;5.53;;;1.80;;
7905;SDS011;13291;40.472;-3.878;2022-10-04T10:05:43;7.50;;;1.77;;
7905;SDS011;13291;40.472;-3.878;2022-10-04T10:08:25;8.73;;;1.50;;
7905;SDS011;13291;40.472;-3.878;2022-10-04T10:11:03;6.13;;;1.30;;
7905;SDS011;13291;40.472;-3.878;2022-10-04T10:14:08;5.03;;;1.50;;
7905;SDS011;13291;40.472;-3.878;2022-10-04T10:17:00;5.73;;;1.13;;
7905;SDS011;13291;40.472;-3.878;2022-10-04T10:19:36;6.93;;;1.73;;
7905;SDS011;13291;40.472;-3.878;2022-10-04T10:22:29;4.83;;;1.73;;
7905;SDS011;13291;40.472;-3.878;2022-10-04T10:25:21;7.73;;;1.33;;
7905;SDS011;13291;40.472;-3.878;2022-10-04T10:31:07;9.87;;;1.80;;
7905;SDS011;13291;40.472;-3.878;2022-10-04T10:34:12;6.03;;;1.47;;
7905;SDS011;13291;40.472;-3.878;2022-10-04T10:37:07;6.43;;;1.70;;
7905;SDS011;13291;40.472;-3.878;2022-10-04T10:39:41;6.93;;;1.30;;
7905;SDS011;13291;40.472;-3.878;2022-10-04T10:42:28;5.40;;;1.73;;
7905;SDS011;13291;40.472;-3.878;2022-10-04T10:45:19;4.83;;;1.73;;
7905;SDS011;13291;40.472;-3.878;2022-10-04T10:48:07;4.97;;;1.70;;
7905;SDS011;13291;40.472;-3.878;2022-10-04T10:56:56;4.27;;;1.60;;
7905;SDS011;13291;40.472;-3.878;2022-10-04T11:02:44;5.53;;;1.60;;
7905;SDS011;13291;40.472;-3.878;2022-10-04T11:05:50;5.93;;;1.47;;
7905;SDS011;13291;40.472;-3.878;2022-10-04T11:18:09;4.73;;;1.70;;
7905;SDS011;13291;40.472;-3.878;2022-10-04T11:20:56;6.27;;;1.67;;
7905;SDS011;13291;40.472;-3.878;2022-10-04T11:24:00;5.80;;;1.77;;
7905;SDS011;13291;40.472;-3.878;2022-10-04T11:26:58;6.40;;;1.60;;
7905;SDS011;13291;40.472;-3.878;2022-10-04T11:29:47;11.20;;;1.80;;
7905;SDS011;13291;40.472;-3.878;2022-10-04T11:41:38;10.73;;;2.27;;
7905;SDS011;13291;40.472;-3.878;2022-10-04T11:47:18;13.23;;;1.80;;
7905;SDS011;13291;40.472;-3.878;2022-10-04T11:50:02;12.90;;;2.20;;
7905;SDS011;13291;40.472;-3.878;2022-10-04T11:52:48;6.87;;;1.83;;
7905;SDS011;13291;40.472;-3.878;2022-10-04T11:55:44;6.27;;;1.60;;
7905;SDS011;13291;40.472;-3.878;2022-10-04T11:58:24;7.37;;;1.90;;
7905;SDS011;13291;40.472;-3.878;2022-10-04T12:01:10;12.43;;;2.63;;
7905;SDS011;13291;40.472;-3.878;2022-10-04T12:04:11;11.27;;;2.20;;
7905;SDS011;13291;40.472;-3.878;2022-10-04T12:06:59;6.90;;;1.63;;
7905;SDS011;13291;40.472;-3.878;2022-10-04T12:09:37;11.53;;;1.80;;
7905;SDS011;13291;40.472;-3.878;2022-10-04T12:23:51;14.30;;;2.17;;
7905;SDS011;13291;40.472;-3.878;2022-10-04T12:33:02;10.27;;;2.53;;
7905;SDS011;13291;40.472;-3.878;2022-10-04T12:35:41;7.63;;;1.93;;
7905;SDS011;13291;40.472;-3.878;2022-10-04T12:38:21;6.00;;;2.00;;
7905;SDS011;13291;40.472;-3.878;2022-10-04T12:41:17;5.20;;;1.70;;
7905;SDS011;13291;40.472;-3.878;2022-10-04T12:43:55;14.83;;;2.57;;
7905;SDS011;13291;40.472;-3.878;2022-10-04T12:46:33;10.30;;;2.23;;
7905;SDS011;13291;40.472;-3.878;2022-10-04T12:49:17;7.60;;;1.70;;
7905;SDS011;13291;40.472;-3.878;2022-10-04T12:51:54;16.80;;;3.00;;
7905;SDS011;13291;40.472;-3.878;2022-10-04T12:54:31;5.70;;;1.90;;
7905;SDS011;13291;40.472;-3.878;2022-10-04T12:57:06;9.50;;;1.87;;
7905;SDS011;13291;40.472;-3.878;2022-10-04T13:00:01;12.60;;;2.77;;
7905;SDS011;13291;40.472;-3.878;2022-10-04T13:02:59;14.93;;;2.40;;
7905;SDS011;13291;40.472;-3.878;2022-10-04T13:05:41;7.57;;;2.50;;
7905;SDS011;13291;40.472;-3.878;2022-10-04T13:08:39;8.23;;;2.57;;
7905;SDS011;13291;40.472;-3.878;2022-10-04T13:11:27;19.80;;;3.47;;
7905;SDS011;13291;40.472;-3.878;2022-10-04T13:14:16;13.73;;;2.43;;
7905;SDS011;13291;40.472;-3.878;2022-10-04T13:17:16;9.10;;;2.63;;
7905;SDS011;13291;40.472;-3.878;2022-10-04T13:19:54;15.73;;;2.90;;
7905;SDS011;13291;40.472;-3.878;2022-10-04T13:22:41;13.13;;;2.73;;
7905;SDS011;13291;40.472;-3.878;2022-10-04T13:25:19;15.90;;;3.50;;
7905;SDS011;13291;40.472;-3.878;2022-10-04T13:28:02;14.30;;;3.43;;
7905;SDS011;13291;40.472;-3.878;2022-10-04T13:30:41;22.57;;;2.97;;
7905;SDS011;13291;40.472;-3.878;2022-10-04T13:33:16;14.73;;;3.23;;
7905;SDS011;13291;40.472;-3.878;2022-10-04T13:35:52;15.77;;;3.60;;
7905;SDS011;13291;40.472;-3.878;2022-10-04T13:38:30;17.43;;;3.37;;
7905;SDS011;13291;40.472;-3.878;2022-10-04T13:41:16;15.87;;;2.97;;
7905;SDS011;13291;40.472;-3.878;2022-10-04T13:44:18;12.63;;;2.70;;
7905;SDS011;13291;40.472;-3.878;2022-10-04T13:47:01;16.80;;;3.13;;
7905;SDS011;13291;40.472;-3.878;2022-10-04T13:49:41;13.87;;;3.10;;
7905;SDS011;13291;40.472;-3.878;2022-10-04T13:52:28;8.63;;;2.80;;
7905;SDS011;13291;40.472;-3.878;2022-10-04T13:55:30;14.23;;;2.90;;
7905;SDS011;13291;40.472;-3.878;2022-10-04T13:58:23;9.77;;;2.70;;
7905;SDS011;13291;40.472;-3.878;2022-10-04T14:01:05;16.40;;;3.10;;
7905;SDS011;13291;40.472;-3.878;2022-10-04T14:04:04;18.17;;;3.10;;
7905;SDS011;13291;40.472;-3.878;2022-10-04T14:09:59;12.87;;;3.23;;
7905;SDS011;13291;40.472;-3.878;2022-10-04T14:16:08;21.70;;;3.40;;
7905;SDS011;13291;40.472;-3.878;2022-10-04T14:22:06;20.30;;;4.20;;
7905;SDS011;13291;40.472;-3.878;2022-10-04T14:25:09;28.23;;;4.07;;
7905;SDS011;13291;40.472;-3.878;2022-10-04T14:31:14;21.97;;;3.73;;
7905;SDS011;13291;40.472;-3.878;2022-10-04T14:34:02;15.80;;;3.83;;
7905;SDS011;13291;40.472;-3.878;2022-10-04T14:37:00;17.00;;;4.17;;
7905;SDS011;13291;40.472;-3.878;2022-10-04T14:39:49;21.03;;;3.70;;
7905;SDS011;13291;40.472;-3.878;2022-10-04T14:45:51;20.60;;;3.30;;
7905;SDS011;13291;40.472;-3.878;2022-10-04T14:48:39;18.73;;;3.60;;
7905;SDS011;13291;40.472;-3.878;2022-10-04T14:51:21;21.03;;;3.57;;
7905;SDS011;13291;40.472;-3.878;2022-10-04T14:53:58;24.03;;;4.10;;
7905;SDS011;13291;40.472;-3.878;2022-10-04T14:56:41;25.10;;;7.60;;
7905;SDS011;13291;40.472;-3.878;2022-10-04T14:59:26;19.97;;;4.23;;
7905;SDS011;13291;40.472;-3.878;2022-10-04T15:02:12;18.33;;;3.67;;
7905;SDS011;13291;40.472;-3.878;2022-10-04T15:05:04;22.07;;;3.83;;
7905;SDS011;13291;40.472;-3.878;2022-10-04T15:07:53;20.80;;;3.77;;
7905;SDS011;13291;40.472;-3.878;2022-10-04T15:10:34;19.20;;;4.30;;
7905;SDS011;13291;40.472;-3.878;2022-10-04T15:13:05;19.47;;;3.03;;
7905;SDS011;13291;40.472;-3.878;2022-10-04T15:15:49;15.70;;;3.90;;
7905;SDS011;13291;40.472;-3.878;2022-10-04T15:18:37;15.40;;;3.60;;
7905;SDS011;13291;40.472;-3.878;2022-10-04T15:21:26;21.37;;;3.40;;
7905;SDS011;13291;40.472;-3.878;2022-10-04T15:24:21;22.07;;;3.90;;
7905;SDS011;13291;40.472;-3.878;2022-10-04T15:26:59;16.67;;;3.70;;
7905;SDS011;13291;40.472;-3.878;2022-10-04T15:29:43;22.57;;;4.33;;
7905;SDS011;13291;40.472;-3.878;2022-10-04T15:32:19;21.53;;;4.57;;
7905;SDS011;13291;40.472;-3.878;2022-10-04T15:34:57;16.97;;;2.97;;
7905;SDS011;13291;40.472;-3.878;2022-10-04T15:37:35;22.77;;;3.77;;
7905;SDS011;13291;40.472;-3.878;2022-10-04T15:40:15;14.27;;;3.20;;
7905;SDS011;13291;40.472;-3.878;2022-10-04T15:43:01;18.80;;;3.17;;
7905;SDS011;13291;40.472;-3.878;2022-10-04T15:45:47;21.90;;;4.33;;
7905;SDS011;13291;40.472;-3.878;2022-10-04T15:48:24;21.50;;;4.13;;
7905;SDS011;13291;40.472;-3.878;2022-10-04T15:50:59;13.20;;;3.50;;
7905;SDS011;13291;40.472;-3.878;2022-10-04T15:53:42;17.23;;;4.17;;
7905;SDS011;13291;40.472;-3.878;2022-10-04T15:59:18;16.43;;;3.67;;
7905;SDS011;13291;40.472;-3.878;2022-10-04T16:01:55;23.07;;;4.20;;
7905;SDS011;13291;40.472;-3.878;2022-10-04T16:04:44;26.47;;;4.53;;
7905;SDS011;13291;40.472;-3.878;2022-10-04T16:07:38;22.60;;;4.00;;
7905;SDS011;13291;40.472;-3.878;2022-10-04T16:10:21;18.80;;;3.80;;
7905;SDS011;13291;40.472;-3.878;2022-10-04T16:18:51;15.53;;;3.70;;
7905;SDS011;13291;40.472;-3.878;2022-10-04T16:21:30;16.60;;;3.67;;
7905;SDS011;13291;40.472;-3.878;2022-10-04T16:27:07;14.13;;;3.60;;
7905;SDS011;13291;40.472;-3.878;2022-10-04T16:29:48;24.23;;;3.60;;
7905;SDS011;13291;40.472;-3.878;2022-10-04T16:32:26;20.70;;;4.20;;
7905;SDS011;13291;40.472;-3.878;2022-10-04T16:35:04;25.53;;;4.23;;
7905;SDS011;13291;40.472;-3.878;2022-10-04T16:37:34;21.70;;;4.27;;
7905;SDS011;13291;40.472;-3.878;2022-10-04T16:40:15;20.87;;;3.83;;
7905;SDS011;13291;40.472;-3.878;2022-10-04T16:42:53;24.50;;;4.60;;
7905;SDS011;13291;40.472;-3.878;2022-10-04T16:45:29;20.13;;;3.37;;
7905;SDS011;13291;40.472;-3.878;2022-10-04T16:48:03;20.83;;;3.80;;
7905;SDS011;13291;40.472;-3.878;2022-10-04T16:53:47;25.97;;;3.87;;
7905;SDS011;13291;40.472;-3.878;2022-10-04T16:56:19;23.10;;;4.10;;
7905;SDS011;13291;40.472;-3.878;2022-10-04T16:58:52;26.53;;;3.90;;
7905;SDS011;13291;40.472;-3.878;2022-10-04T17:04:45;20.17;;;3.50;;
7905;SDS011;13291;40.472;-3.878;2022-10-04T17:07:22;22.70;;;3.93;;
7905;SDS011;13291;40.472;-3.878;2022-10-04T17:09:59;20.50;;;3.60;;
7905;SDS011;13291;40.472;-3.878;2022-10-04T17:12:41;22.30;;;3.83;;
7905;SDS011;13291;40.472;-3.878;2022-10-04T17:15:23;16.73;;;3.57;;
7905;SDS011;13291;40.472;-3.878;2022-10-04T17:18:10;19.13;;;4.40;;
7905;SDS011;13291;40.472;-3.878;2022-10-04T17:20:47;14.73;;;3.70;;
7905;SDS011;13291;40.472;-3.878;2022-10-04T17:26:46;20.27;;;4.37;;
7905;SDS011;13291;40.472;-3.878;2022-10-04T17:29:27;23.23;;;4.27;;
7905;SDS011;13291;40.472;-3.878;2022-10-04T17:32:04;18.97;;;3.70;;
7905;SDS011;13291;40.472;-3.878;2022-10-04T17:34:39;23.80;;;4.03;;
7905;SDS011;13291;40.472;-3.878;2022-10-04T17:37:18;16.73;;;4.40;;
7905;SDS011;13291;40.472;-3.878;2022-10-04T17:39:55;15.17;;;3.80;;
7905;SDS011;13291;40.472;-3.878;2022-10-04T17:42:33;23.57;;;4.10;;
7905;SDS011;13291;40.472;-3.878;2022-10-04T17:45:17;13.37;;;3.50;;
7905;SDS011;13291;40.472;-3.878;2022-10-04T17:47:55;13.17;;;3.23;;
7905;SDS011;13291;40.472;-3.878;2022-10-04T17:50:46;18.63;;;4.00;;
7905;SDS011;13291;40.472;-3.878;2022-10-04T17:53:40;29.23;;;5.40;;
7905;SDS011;13291;40.472;-3.878;2022-10-04T17:56:42;26.83;;;4.50;;
7905;SDS011;13291;40.472;-3.878;2022-10-04T17:59:15;16.87;;;4.33;;
7905;SDS011;13291;40.472;-3.878;2022-10-04T18:01:49;24.33;;;3.90;;